Time;durP1;ratioP1;P1;durP2;ratioP2;P2;SDS_P1;SDS_P2;PMS_P1;PMS_P2;Temp;Humidity;BMP_temperature;BMP_pressure;BME280_temperature;BME280_humidity;BME280_pressure;Samples;Min_cycle;Max_cycle;Signal;HPM_P1;HPM_P2
2022/08/17 00:00:50;;;;;;;23.50;20.80;;;19.10;99.90;;;;;;5057037;28;20052;-84
2022/08/17 00:03:38;;;;;;;23.00;20.67;;;19.10;99.90;;;;;;5074405;28;20490;-82
2022/08/17 00:06:10;;;;;;;25.52;22.58;;;19.10;99.90;;;;;;5073897;28;20056;-81
2022/08/17 00:08:55;;;;;;;25.73;22.50;;;19.00;99.90;;;;;;5074755;28;20417;-82
2022/08/17 00:11:31;;;;;;;27.88;23.63;;;19.00;99.90;;;;;;5074444;28;20047;-82
2022/08/17 00:14:00;;;;;;;29.77;25.67;;;19.10;99.90;;;;;;5074129;28;20128;-83
2022/08/17 00:16:48;;;;;;;30.10;26.95;;;19.00;99.90;;;;;;5056809;28;20044;-82
2022/08/17 00:19:17;;;;;;;31.70;27.10;;;19.00;99.90;;;;;;5074466;28;20041;-84
2022/08/17 00:21:45;;;;;;;28.98;24.38;;;19.00;99.90;;;;;;5074240;28;20044;-83
2022/08/17 00:24:11;;;;;;;31.23;26.15;;;19.00;99.90;;;;;;5056675;28;20040;-82
2022/08/17 00:26:37;;;;;;;29.13;26.30;;;19.00;99.90;;;;;;5074407;28;20127;-82
2022/08/17 00:29:04;;;;;;;29.70;26.40;;;18.90;99.90;;;;;;5074164;28;20059;-83
2022/08/17 00:31:30;;;;;;;30.67;27.13;;;18.90;99.90;;;;;;5074348;28;20041;-84
2022/08/17 00:33:56;;;;;;;33.95;29.00;;;19.00;99.90;;;;;;5056301;28;20066;-83
2022/08/17 00:36:22;;;;;;;31.88;28.38;;;19.00;99.90;;;;;;5073946;28;20124;-83
2022/08/17 00:38:49;;;;;;;34.80;27.15;;;18.90;99.90;;;;;;5056006;28;20045;-84
2022/08/17 00:41:20;;;;;;;30.60;27.42;;;18.90;99.90;;;;;;5073896;28;20450;-85
2022/08/17 00:43:50;;;;;;;32.92;27.08;;;18.90;99.90;;;;;;5056403;28;20127;-84
2022/08/17 00:46:27;;;;;;;29.33;25.80;;;18.90;99.90;;;;;;5055961;28;20036;-86
2022/08/17 00:48:53;;;;;;;27.20;24.15;;;18.80;99.90;;;;;;5039612;28;20052;-82
2022/08/17 00:51:25;;;;;;;33.05;29.55;;;18.70;99.90;;;;;;5073683;28;20075;-82
2022/08/17 00:53:57;;;;;;;33.50;29.35;;;18.60;99.90;;;;;;5055865;28;20046;-82
2022/08/17 00:56:31;;;;;;;38.50;31.60;;;18.60;99.90;;;;;;5056139;28;20041;-82
2022/08/17 00:58:57;;;;;;;35.47;31.75;;;18.50;99.90;;;;;;5073566;28;20045;-82
2022/08/17 01:01:24;;;;;;;36.00;30.92;;;18.40;99.90;;;;;;5055802;28;20044;-82
2022/08/17 01:03:51;;;;;;;35.13;31.30;;;18.40;99.90;;;;;;5055772;28;20044;-84
2022/08/17 01:06:17;;;;;;;36.20;32.35;;;18.40;99.90;;;;;;5072334;28;20045;-86
2022/08/17 01:08:43;;;;;;;36.60;32.80;;;18.40;99.90;;;;;;5039136;28;20060;-85
2022/08/17 01:11:09;;;;;;;40.55;34.78;;;18.40;99.90;;;;;;5073361;28;20087;-84
2022/08/17 01:13:39;;;;;;;44.70;36.85;;;18.30;99.90;;;;;;5073290;28;20084;-84
2022/08/17 01:16:21;;;;;;;42.28;35.25;;;18.30;99.90;;;;;;5055580;28;20492;-84
2022/08/17 01:18:54;;;;;;;40.85;34.80;;;18.30;99.90;;;;;;5055418;28;20122;-85
2022/08/17 01:21:31;;;;;;;42.20;35.33;;;18.20;99.90;;;;;;5055751;28;20512;-84
2022/08/17 01:23:58;;;;;;;43.67;36.15;;;18.20;99.90;;;;;;5073194;28;20091;-85
2022/08/17 01:26:24;;;;;;;39.53;35.15;;;18.20;99.90;;;;;;5054642;28;20056;-85
2022/08/17 01:28:51;;;;;;;46.00;37.15;;;18.20;99.90;;;;;;5055456;28;20375;-84
2022/08/17 01:31:17;;;;;;;46.63;37.80;;;18.10;99.90;;;;;;5072909;28;20071;-84
2022/08/17 01:33:43;;;;;;;46.00;38.55;;;18.10;99.90;;;;;;5055035;28;20110;-87
2022/08/17 01:36:09;;;;;;;44.85;37.65;;;18.10;99.90;;;;;;5073089;28;20049;-84
2022/08/17 01:38:36;;;;;;;52.35;38.35;;;18.10;99.90;;;;;;5038389;28;20121;-84
2022/08/17 01:41:12;;;;;;;47.22;38.83;;;18.10;99.90;;;;;;5072775;28;20037;-84
2022/08/17 01:43:52;;;;;;;45.13;38.53;;;18.10;99.90;;;;;;5055094;28;20048;-85
2022/08/17 01:46:27;;;;;;;44.70;38.30;;;18.10;99.90;;;;;;5072472;28;20048;-84
2022/08/17 01:48:54;;;;;;;47.13;40.45;;;18.10;99.90;;;;;;5055160;28;20052;-84
2022/08/17 01:51:20;;;;;;;51.95;41.08;;;18.10;99.90;;;;;;5054961;28;20052;-84
2022/08/17 01:53:52;;;;;;;60.33;44.13;;;18.20;99.90;;;;;;5072688;28;20047;-83
2022/08/17 01:56:21;;;;;;;55.50;44.83;;;18.10;99.90;;;;;;5072625;28;20063;-84
2022/08/17 01:58:47;;;;;;;61.65;44.97;;;18.10;99.90;;;;;;5072289;28;20639;-84
2022/08/17 02:01:17;;;;;;;61.70;44.70;;;18.10;99.90;;;;;;5072785;28;20048;-84
2022/08/17 02:03:43;;;;;;;59.35;45.88;;;18.20;99.90;;;;;;5072728;28;20049;-84
2022/08/17 02:06:09;;;;;;;57.63;43.47;;;18.10;99.90;;;;;;5072363;28;20383;-85
2022/08/17 02:08:35;;;;;;;55.92;42.50;;;18.20;99.90;;;;;;5072577;28;20053;-84
2022/08/17 02:11:05;;;;;;;53.60;43.88;;;18.10;99.90;;;;;;5072409;28;20179;-85
2022/08/17 02:13:32;;;;;;;56.13;44.67;;;18.20;99.90;;;;;;5072284;28;20493;-85
2022/08/17 02:15:59;;;;;;;51.10;41.63;;;18.20;99.90;;;;;;5072275;28;20048;-87
2022/08/17 02:18:25;;;;;;;58.22;43.75;;;18.30;99.90;;;;;;5054650;28;20080;-84
2022/08/17 02:20:51;;;;;;;47.05;39.45;;;18.20;99.90;;;;;;5072668;28;20098;-84
2022/08/17 02:23:18;;;;;;;55.97;41.80;;;18.20;99.90;;;;;;5054473;28;20060;-86
2022/08/17 02:25:47;;;;;;;56.88;43.67;;;18.20;99.90;;;;;;5054507;28;20396;-85
2022/08/17 02:28:13;;;;;;;51.55;41.22;;;18.20;99.90;;;;;;5054266;28;20048;-85
2022/08/17 02:30:39;;;;;;;49.60;40.80;;;18.20;99.90;;;;;;5072475;28;20083;-85
2022/08/17 02:33:07;;;;;;;38.95;34.70;;;18.20;99.90;;;;;;5054708;28;20140;-87
2022/08/17 02:35:34;;;;;;;51.03;41.08;;;18.20;99.90;;;;;;5072308;28;20044;-85
2022/08/17 02:38:00;;;;;;;49.30;42.63;;;18.20;99.90;;;;;;5054529;28;20566;-84
2022/08/17 02:40:26;;;;;;;53.80;42.92;;;18.20;99.90;;;;;;5072139;28;20048;-83
2022/08/17 02:42:52;;;;;;;52.25;41.60;;;18.20;99.90;;;;;;5072045;28;20087;-84
2022/08/17 02:45:21;;;;;;;55.28;41.75;;;18.20;99.90;;;;;;5072166;28;20044;-84
2022/08/17 02:47:48;;;;;;;46.30;39.75;;;18.10;99.90;;;;;;5037582;28;20045;-85
2022/08/17 02:50:16;;;;;;;54.92;43.55;;;18.20;99.90;;;;;;5072121;28;20044;-84
2022/08/17 02:52:44;;;;;;;46.53;38.92;;;18.10;99.90;;;;;;5071982;28;20549;-85
2022/08/17 02:55:20;;;;;;;51.03;41.10;;;18.10;99.90;;;;;;5072093;28;20086;-85
2022/08/17 02:57:46;;;;;;;45.75;37.50;;;18.10;99.90;;;;;;5071879;28;20051;-85
2022/08/17 03:00:44;;;;;;;49.72;40.13;;;18.00;99.90;;;;;;5072120;28;20494;-85
2022/08/17 03:03:12;;;;;;;46.20;36.80;;;18.00;99.90;;;;;;4993933;28;20053;-92
2022/08/17 03:05:38;;;;;;;47.22;40.65;;;18.00;99.90;;;;;;5010077;28;20066;-86
2022/08/17 03:08:06;;;;;;;56.10;43.35;;;18.00;99.90;;;;;;5009817;28;20519;-85
2022/08/17 03:10:32;;;;;;;54.45;42.17;;;18.00;99.90;;;;;;5010377;28;20046;-84
2022/08/17 03:12:58;;;;;;;50.20;39.45;;;18.00;99.90;;;;;;5009886;28;20058;-84
2022/08/17 03:15:29;;;;;;;49.40;39.88;;;17.90;99.90;;;;;;5009973;28;20061;-86
2022/08/17 03:17:55;;;;;;;;;;;17.90;99.90;;;;;;5010475;28;20487;-87
2022/08/17 03:20:21;;;;;;;43.25;34.20;;;17.80;99.90;;;;;;4993786;28;19929;-86
2022/08/17 03:22:50;;;;;;;40.08;32.58;;;17.90;99.90;;;;;;5009743;28;20053;-87
2022/08/17 03:25:25;;;;;;;46.72;40.67;;;17.90;99.90;;;;;;4993945;28;20127;-89
2022/08/17 03:27:52;;;;;;;46.85;39.75;;;17.90;99.90;;;;;;5009949;28;20096;-84
2022/08/17 03:30:18;;;;;;;41.75;35.63;;;17.90;99.90;;;;;;5010906;28;20054;-88
2022/08/17 03:32:46;;;;;;;49.92;40.30;;;17.90;99.90;;;;;;5013301;28;20054;-84
2022/08/17 03:35:14;;;;;;;50.83;41.03;;;18.00;99.90;;;;;;5013326;28;20562;-88
2022/08/17 03:37:41;;;;;;;43.67;36.78;;;18.00;99.90;;;;;;5013518;28;20050;-84
2022/08/17 03:40:08;;;;;;;52.58;40.72;;;18.00;99.90;;;;;;5060212;28;20107;-85
2022/08/17 03:42:37;;;;;;;47.55;38.60;;;18.00;99.90;;;;;;5057280;28;20532;-84
2022/08/17 03:45:04;;;;;;;50.83;41.63;;;18.00;99.90;;;;;;5075076;28;20057;-84
2022/08/17 03:58:32;;;;;;;31.73;28.38;;;18.20;99.90;;;;;;5056795;28;20048;-85
2022/08/17 04:00:58;;;;;;;48.33;39.67;;;18.20;99.90;;;;;;5057244;28;20045;-86
2022/08/17 04:03:24;;;;;;;42.45;36.95;;;18.30;99.90;;;;;;5074754;28;20051;-85
2022/08/17 04:05:50;;;;;;;44.10;37.90;;;18.30;99.90;;;;;;5074796;28;20148;-84
2022/08/17 04:08:16;;;;;;;40.65;36.30;;;18.40;99.90;;;;;;5056630;28;20088;-88
2022/08/17 04:10:42;;;;;;;48.10;40.50;;;18.30;99.90;;;;;;5040480;28;20044;-84
2022/08/17 04:13:08;;;;;;;43.75;37.58;;;18.40;99.90;;;;;;5074804;28;20044;-85
2022/08/17 04:15:34;;;;;;;42.22;35.60;;;18.40;99.90;;;;;;5056534;28;20473;-86
2022/08/17 04:18:00;;;;;;;47.72;38.78;;;18.40;99.90;;;;;;5056884;28;20087;-85
2022/08/17 04:20:26;;;;;;;41.05;34.33;;;18.40;99.90;;;;;;5056334;28;20106;-87
2022/08/17 04:23:14;;;;;;;38.83;33.58;;;18.40;99.90;;;;;;5056690;28;20099;-88
2022/08/17 04:25:44;;;;;;;40.88;31.73;;;18.50;99.90;;;;;;5074125;28;20044;-87
2022/08/17 04:28:10;;;;;;;44.10;35.20;;;18.50;99.90;;;;;;5039857;28;20106;-86
2022/08/17 04:30:36;;;;;;;49.70;40.17;;;18.50;99.90;;;;;;5073991;28;20041;-88
2022/08/17 04:33:17;;;;;;;51.30;40.42;;;18.50;99.90;;;;;;5074096;28;20048;-86
2022/08/17 04:35:46;;;;;;;53.55;38.97;;;18.50;99.90;;;;;;5074047;28;20482;-85
2022/08/17 04:38:16;;;;;;;31.58;26.15;;;18.40;99.90;;;;;;5074170;28;20083;-85
2022/08/17 04:43:29;;;;;;;43.78;36.72;;;18.40;99.90;;;;;;5056403;28;20463;-85
2022/08/17 04:45:58;;;;;;;47.08;39.80;;;18.50;99.90;;;;;;5056216;28;20052;-86
2022/08/17 04:48:27;;;;;;;51.63;39.88;;;18.50;99.90;;;;;;5056168;28;20397;-85
2022/08/17 04:50:52;;;;;;;49.75;38.30;;;18.50;99.90;;;;;;5073703;28;20052;-87
2022/08/17 04:53:20;;;;;;;45.33;38.05;;;18.50;99.90;;;;;;5073631;28;20136;-86
2022/08/17 04:55:46;;;;;;;48.30;37.97;;;18.50;99.90;;;;;;5056073;28;20044;-86
2022/08/17 04:58:13;;;;;;;44.33;38.65;;;18.50;99.90;;;;;;5073897;28;20041;-85
2022/08/17 05:00:38;;;;;;;46.55;38.05;;;18.60;99.90;;;;;;5073602;28;20048;-88
2022/08/17 05:03:05;;;;;;;43.22;34.70;;;18.60;99.90;;;;;;5055955;28;20047;-85
2022/08/17 05:05:35;;;;;;;48.60;38.40;;;18.60;99.90;;;;;;5073338;28;20096;-85
2022/08/17 05:08:03;;;;;;;44.93;39.17;;;18.60;99.90;;;;;;5073442;28;20059;-86
2022/08/17 05:10:34;;;;;;;48.95;36.78;;;18.60;99.90;;;;;;5055522;28;20048;-85
2022/08/17 05:13:01;;;;;;;43.88;37.38;;;18.60;99.90;;;;;;5027708;28;20055;-86
2022/08/17 05:15:28;;;;;;;36.95;29.60;;;18.70;99.90;;;;;;5022950;28;20060;-87
2022/08/17 05:17:54;;;;;;;39.72;35.03;;;18.70;99.90;;;;;;5035515;28;20375;-85
2022/08/17 05:20:21;;;;;;;41.40;33.28;;;18.70;99.90;;;;;;5052751;28;20045;-88
2022/08/17 05:22:49;;;;;;;36.28;30.10;;;18.80;99.90;;;;;;5035701;28;20072;-86
2022/08/17 05:25:20;;;;;;;32.88;28.88;;;18.80;99.90;;;;;;5035754;28;20406;-88
2022/08/17 05:27:46;;;;;;;40.42;34.95;;;18.90;99.90;;;;;;5035382;28;20087;-87
2022/08/17 05:30:13;;;;;;;41.05;34.53;;;18.90;99.90;;;;;;5035315;28;20459;-89
2022/08/17 05:32:38;;;;;;;36.05;31.38;;;19.00;99.90;;;;;;5035336;28;20045;-88
2022/08/17 05:35:05;;;;;;;43.53;35.13;;;19.10;99.90;;;;;;5035263;28;20056;-86
2022/08/17 05:37:30;;;;;;;45.80;35.72;;;19.10;99.90;;;;;;5035720;28;20060;-85
2022/08/17 05:39:56;;;;;;;42.05;35.42;;;19.20;99.90;;;;;;5052885;28;20052;-85
2022/08/17 05:42:22;;;;;;;44.85;36.92;;;19.20;99.90;;;;;;5052881;28;20487;-85
2022/08/17 05:44:48;;;;;;;43.72;35.53;;;19.30;99.90;;;;;;5052758;28;20553;-85
2022/08/17 05:47:14;;;;;;;32.55;25.92;;;19.30;99.90;;;;;;5034789;28;20174;-89
2022/08/17 05:49:39;;;;;;;34.10;28.73;;;19.40;99.90;;;;;;5035046;28;20127;-85
2022/08/17 05:52:42;;;;;;;39.28;33.38;;;19.40;99.90;;;;;;5052743;28;20048;-85
2022/08/17 05:55:46;;;;;;;40.00;33.97;;;19.50;99.90;;;;;;5018951;28;20063;-84
2022/08/17 05:58:25;;;;;;;43.15;37.03;;;19.60;99.90;;;;;;5033526;28;20087;-87
2022/08/17 06:01:08;;;;;;;31.23;27.48;;;19.70;99.90;;;;;;5034943;28;20045;-84
2022/08/17 06:04:02;;;;;;;47.38;36.95;;;19.70;99.90;;;;;;5035039;28;20053;-87
2022/08/17 06:06:41;;;;;;;34.08;28.42;;;19.70;99.90;;;;;;5031227;28;20418;-87
2022/08/17 06:09:18;;;;;;;38.78;31.20;;;19.80;99.90;;;;;;5031561;28;20048;-86
2022/08/17 06:11:58;;;;;;;39.58;31.50;;;19.90;99.90;;;;;;5031917;28;20045;-85
2022/08/17 06:15:00;;;;;;;43.88;35.45;;;20.00;99.90;;;;;;5032446;28;20045;-88
2022/08/17 06:17:27;;;;;;;39.15;33.63;;;20.10;99.90;;;;;;5016165;28;20045;-84
2022/08/17 06:19:58;;;;;;;36.05;32.08;;;20.20;99.90;;;;;;5037794;28;20050;-84
2022/08/17 06:22:32;;;;;;;41.05;34.97;;;20.20;99.90;;;;;;5039101;28;20049;-84
2022/08/17 06:25:11;;;;;;;32.17;25.13;;;20.30;99.90;;;;;;5034188;28;20132;-86
2022/08/17 06:27:42;;;;;;;37.47;33.47;;;20.40;99.90;;;;;;5032932;28;20587;-84
2022/08/17 06:30:23;;;;;;;42.65;34.97;;;20.50;99.90;;;;;;5034801;28;20499;-87
2022/08/17 06:32:55;;;;;;;35.22;28.48;;;20.50;99.90;;;;;;5034300;28;20108;-86
2022/08/17 06:35:41;;;;;;;39.92;32.40;;;20.40;99.90;;;;;;5032471;28;20095;-86
2022/08/17 06:38:27;;;;;;;35.15;29.92;;;20.40;99.90;;;;;;5016020;28;20099;-87
2022/08/17 06:41:00;;;;;;;33.90;29.70;;;20.40;99.90;;;;;;5032763;28;20056;-84
2022/08/17 06:43:32;;;;;;;38.10;32.53;;;20.50;99.90;;;;;;5033623;28;20052;-84
2022/08/17 06:46:14;;;;;;;35.15;30.60;;;20.50;99.90;;;;;;5032346;28;20395;-84
2022/08/17 06:48:48;;;;;;;34.05;30.45;;;20.60;99.90;;;;;;5032287;28;20045;-84
2022/08/17 06:51:24;;;;;;;35.00;29.05;;;20.70;99.90;;;;;;5033120;28;20124;-83
2022/08/17 06:54:04;;;;;;;34.47;30.95;;;20.70;99.90;;;;;;5032703;28;20038;-84
2022/08/17 06:56:43;;;;;;;38.42;33.38;;;20.80;99.90;;;;;;5032206;28;20077;-83
2022/08/17 06:59:16;;;;;;;33.80;30.05;;;20.80;99.90;;;;;;5031269;28;20063;-89
2022/08/17 07:01:45;;;;;;;33.63;29.83;;;20.90;99.90;;;;;;5031489;28;20049;-82
2022/08/17 07:04:25;;;;;;;34.78;30.33;;;21.00;99.90;;;;;;5031577;28;20049;-84
2022/08/17 07:06:58;;;;;;;34.47;30.05;;;21.00;99.90;;;;;;5053698;28;20140;-81
2022/08/17 07:09:34;;;;;;;28.98;25.88;;;21.00;99.90;;;;;;5038650;28;20131;-83
2022/08/17 07:12:18;;;;;;;33.65;29.88;;;21.00;99.90;;;;;;5056015;28;20045;-84
2022/08/17 07:15:20;;;;;;;32.20;28.58;;;21.00;99.90;;;;;;5038290;28;20037;-91
2022/08/17 07:17:46;;;;;;;32.78;29.02;;;20.90;99.90;;;;;;5020526;28;20142;-84
2022/08/17 07:20:19;;;;;;;32.90;29.48;;;20.80;99.90;;;;;;5001962;28;20041;-87
2022/08/17 07:23:08;;;;;;;34.65;31.05;;;20.80;99.90;;;;;;5034514;28;20111;-84
2022/08/17 07:25:34;;;;;;;36.40;29.77;;;20.70;99.90;;;;;;5034420;28;20403;-83
2022/08/17 07:28:04;;;;;;;34.88;31.20;;;20.60;99.90;;;;;;5034163;28;20061;-83
2022/08/17 07:30:49;;;;;;;36.70;32.40;;;20.60;99.90;;;;;;5034319;28;20041;-81
2022/08/17 07:33:19;;;;;;;26.45;23.35;;;20.50;99.90;;;;;;5034381;28;20041;-84
2022/08/17 07:35:47;;;;;;;29.83;26.55;;;20.40;99.90;;;;;;5033387;28;20147;-84
2022/08/17 07:38:15;;;;;;;33.83;28.42;;;20.40;99.90;;;;;;5033398;28;20045;-83
2022/08/17 07:40:43;;;;;;;33.63;30.00;;;20.60;99.90;;;;;;5016412;28;20503;-83
2022/08/17 07:43:43;;;;;;;34.75;29.73;;;20.70;99.90;;;;;;5033193;28;20132;-84
2022/08/17 07:49:11;;;;;;;30.10;26.67;;;21.00;99.90;;;;;;4955238;29;20110;-83
2022/08/17 07:51:41;;;;;;;34.45;30.42;;;21.20;99.90;;;;;;4939117;29;20051;-85
2022/08/17 07:54:21;;;;;;;34.97;29.48;;;21.20;99.90;;;;;;4955358;29;20579;-84
2022/08/17 07:56:49;;;;;;;33.28;29.70;;;21.30;99.90;;;;;;4955069;29;20110;-84
2022/08/17 07:59:22;;;;;;;29.73;26.52;;;21.20;99.90;;;;;;4954958;29;20428;-85
2022/08/17 08:01:56;;;;;;;34.15;28.65;;;21.20;99.90;;;;;;4954787;29;20055;-83
2022/08/17 08:04:33;;;;;;;32.47;29.08;;;21.20;99.90;;;;;;4954790;29;20067;-83
2022/08/17 08:07:00;;;;;;;33.28;28.52;;;21.20;99.90;;;;;;4938721;29;20059;-84
2022/08/17 08:09:43;;;;;;;31.77;28.20;;;21.20;99.90;;;;;;4954584;29;20453;-83
2022/08/17 08:12:35;;;;;;;37.88;31.42;;;21.30;99.90;;;;;;4954891;29;20051;-83
2022/08/17 08:15:21;;;;;;;28.08;25.08;;;21.40;99.90;;;;;;4954391;28;20111;-83
2022/08/17 08:17:59;;;;;;;32.33;28.20;;;21.60;99.90;;;;;;4938364;29;20089;-81
2022/08/17 08:20:40;;;;;;;34.83;31.02;;;21.70;99.90;;;;;;4954217;29;20134;-84
2022/08/17 08:23:24;;;;;;;36.65;30.85;;;21.80;99.90;;;;;;5009344;28;20068;-84
2022/08/17 08:26:12;;;;;;;35.45;29.55;;;21.90;99.90;;;;;;5054559;28;20033;-83
2022/08/17 08:29:17;;;;;;;34.50;30.35;;;22.00;99.90;;;;;;5054465;28;20524;-83
2022/08/17 08:31:57;;;;;;;37.40;32.05;;;22.00;99.90;;;;;;5020216;28;20138;-83
2022/08/17 08:34:47;;;;;;;42.13;32.42;;;21.90;99.90;;;;;;5036833;28;20053;-83
2022/08/17 08:37:26;;;;;;;32.93;28.00;;;21.90;99.90;;;;;;5036413;28;20057;-85
2022/08/17 08:40:09;;;;;;;29.52;25.45;;;21.90;99.90;;;;;;5036380;28;20487;-84
2022/08/17 08:43:02;;;;;;;32.17;28.77;;;21.80;99.90;;;;;;5036627;28;20167;-84
2022/08/17 08:45:59;;;;;;;33.75;29.70;;;21.80;99.90;;;;;;5054015;28;20049;-83
2022/08/17 08:48:43;;;;;;;32.35;28.92;;;21.90;99.90;;;;;;5053975;28;20041;-85
2022/08/17 08:51:28;;;;;;;33.97;29.00;;;22.00;99.90;;;;;;5035837;28;20486;-86
2022/08/17 08:54:08;;;;;;;26.55;23.60;;;22.20;99.90;;;;;;5054205;28;20044;-85
2022/08/17 08:57:02;;;;;;;28.33;24.27;;;22.40;99.90;;;;;;5036015;28;20056;-87
2022/08/17 08:59:31;;;;;;;26.08;22.20;;;22.50;99.90;;;;;;5053754;28;20040;-80
2022/08/17 09:02:00;;;;;;;29.83;26.67;;;22.60;99.90;;;;;;5019457;28;20048;-84
2022/08/17 09:04:47;;;;;;;28.17;24.17;;;22.60;99.90;;;;;;5036177;28;20124;-84
2022/08/17 09:07:37;;;;;;;26.70;23.90;;;22.60;99.90;;;;;;5053458;28;20087;-81
2022/08/17 09:10:33;;;;;;;27.85;24.75;;;22.70;99.90;;;;;;5036285;28;20057;-84
2022/08/17 09:13:20;;;;;;;26.75;23.42;;;22.90;99.90;;;;;;5052906;28;20099;-84
2022/08/17 09:15:57;;;;;;;26.80;22.63;;;23.30;99.90;;;;;;5035361;28;20056;-82
2022/08/17 09:18:33;;;;;;;26.70;23.85;;;23.60;99.90;;;;;;5035391;28;20418;-85
2022/08/17 09:21:05;;;;;;;29.30;22.52;;;23.50;99.90;;;;;;5053383;28;20053;-87
2022/08/17 09:23:33;;;;;;;27.45;21.80;;;23.50;99.90;;;;;;5019099;28;20045;-84
2022/08/17 09:26:29;;;;;;;29.02;23.52;;;23.40;99.90;;;;;;5035718;28;20040;-86
2022/08/17 09:29:04;;;;;;;29.77;26.40;;;23.30;99.90;;;;;;5052329;28;20059;-86
2022/08/17 09:31:39;;;;;;;28.45;23.05;;;23.10;99.90;;;;;;5035709;28;20532;-84
2022/08/17 09:34:15;;;;;;;25.73;22.90;;;23.10;99.90;;;;;;5035739;28;20489;-88
2022/08/17 09:37:00;;;;;;;29.20;24.98;;;23.10;99.90;;;;;;5053875;28;20067;-83
2022/08/17 09:39:48;;;;;;;27.27;23.73;;;23.10;99.90;;;;;;5053753;28;20074;-82
2022/08/17 09:42:28;;;;;;;26.27;23.40;;;23.20;99.90;;;;;;5054000;28;20128;-86
2022/08/17 09:45:02;;;;;;;28.40;24.25;;;23.30;99.90;;;;;;5037494;28;20049;-80
2022/08/17 09:47:52;;;;;;;25.83;21.67;;;23.50;99.90;;;;;;5038803;28;20487;-85
2022/08/17 09:50:26;;;;;;;29.45;24.25;;;23.70;99.90;;;;;;5054972;28;20053;-85
2022/08/17 09:52:57;;;;;;;27.83;24.30;;;23.90;99.90;;;;;;5054003;28;20063;-85
2022/08/17 09:55:44;;;;;;;29.02;25.83;;;24.00;99.90;;;;;;5034925;28;20509;-83
2022/08/17 09:58:28;;;;;;;27.55;24.13;;;24.20;99.90;;;;;;5035269;28;20060;-81
2022/08/17 10:01:06;;;;;;;28.58;24.20;;;24.50;99.90;;;;;;5018572;28;20045;-80
2022/08/17 10:03:58;;;;;;;29.20;24.77;;;24.90;99.90;;;;;;5034892;28;20049;-85
2022/08/17 10:06:29;;;;;;;28.73;25.02;;;25.10;99.90;;;;;;5052104;28;20049;-85
2022/08/17 10:09:08;;;;;;;24.15;21.55;;;25.40;99.90;;;;;;5052536;28;20488;-83
2022/08/17 10:14:41;;;;;;;22.67;20.27;;;27.40;99.90;;;;;;5034627;28;20060;-86
2022/08/17 10:17:49;;;;;;;26.42;20.50;;;28.30;99.90;;;;;;5034842;28;20055;-86
2022/08/17 10:20:35;;;;;;;25.77;22.00;;;28.50;99.90;;;;;;5013609;28;20060;-84
2022/08/17 10:26:23;;;;;;;23.10;17.50;;;28.60;99.90;;;;;;5030110;28;20056;-84
2022/08/17 10:28:57;;;;;;;19.52;17.48;;;29.10;99.90;;;;;;5014054;28;20388;-85
2022/08/17 10:32:03;;;;;;;21.60;19.25;;;29.70;98.30;;;;;;5029903;28;20133;-84
2022/08/17 10:34:53;;;;;;;20.30;18.20;;;30.60;97.50;;;;;;4952085;29;20039;-87
2022/08/17 10:37:18;;;;;;;25.58;17.90;;;31.20;87.70;;;;;;4936134;29;20138;-88
2022/08/17 10:40:16;;;;;;;19.17;16.45;;;31.70;75.50;;;;;;4937825;29;20147;-87
2022/08/17 10:42:55;;;;;;;17.27;15.10;;;32.10;71.60;;;;;;4940019;29;20152;-83
2022/08/17 10:45:26;;;;;;;17.83;15.67;;;32.50;66.60;;;;;;4924180;29;20051;-84
2022/08/17 10:47:58;;;;;;;18.77;16.45;;;32.60;64.70;;;;;;4923609;29;20191;-83
2022/08/17 10:50:46;;;;;;;16.15;14.15;;;32.30;63.60;;;;;;4939793;29;20074;-84
2022/08/17 10:53:44;;;;;;;21.60;19.40;;;31.60;64.60;;;;;;4939979;29;20048;-87
2022/08/17 10:56:13;;;;;;;23.30;18.30;;;30.60;69.80;;;;;;4898423;29;20095;-84
2022/08/17 10:58:54;;;;;;;18.15;16.00;;;29.60;81.50;;;;;;4883038;29;20057;-86
2022/08/17 11:01:31;;;;;;;17.02;15.23;;;28.80;89.80;;;;;;4898548;29;20056;-86
2022/08/17 11:04:17;;;;;;;20.23;17.13;;;28.30;96.80;;;;;;4898379;29;20052;-86
2022/08/17 11:07:00;;;;;;;20.02;17.88;;;28.00;99.70;;;;;;4898320;29;20048;-86
2022/08/17 11:09:47;;;;;;;20.42;18.15;;;27.70;99.90;;;;;;4953807;28;20069;-81
2022/08/17 11:12:36;;;;;;;23.30;18.13;;;27.20;99.90;;;;;;4958803;28;20094;-84
2022/08/17 11:15:23;;;;;;;21.40;19.20;;;26.80;99.90;;;;;;4974542;28;20050;-82
2022/08/17 11:18:07;;;;;;;19.85;16.85;;;26.50;99.90;;;;;;4958335;28;20063;-86
2022/08/17 11:21:06;;;;;;;18.92;16.92;;;26.30;99.90;;;;;;4942287;28;20059;-84
2022/08/17 11:23:57;;;;;;;20.27;15.00;;;26.20;99.90;;;;;;4958468;28;20046;-84
2022/08/17 11:26:28;;;;;;;16.35;14.63;;;26.10;99.90;;;;;;4974324;28;20088;-84
2022/08/17 11:29:03;;;;;;;16.83;15.05;;;26.00;99.90;;;;;;4958536;28;20086;-84
2022/08/17 11:31:43;;;;;;;16.80;14.93;;;26.00;99.90;;;;;;5004841;28;20060;-86
2022/08/17 11:34:25;;;;;;;16.25;14.63;;;25.90;99.90;;;;;;5055181;28;20056;-85
2022/08/17 11:37:06;;;;;;;19.75;16.67;;;26.00;99.90;;;;;;5055394;28;20068;-83
2022/08/17 11:39:51;;;;;;;19.70;14.80;;;26.00;99.90;;;;;;5037587;28;20045;-84
2022/08/17 11:42:41;;;;;;;18.52;16.13;;;26.20;99.90;;;;;;5037620;28;20258;-84
2022/08/17 11:45:24;;;;;;;18.00;16.10;;;26.40;99.90;;;;;;5055137;28;20049;-84
2022/08/17 11:53:42;;;;;;;20.83;17.88;;;26.30;99.90;;;;;;5037319;28;20056;-85
2022/08/17 11:56:27;;;;;;;18.27;14.95;;;26.20;99.90;;;;;;5037526;28;20402;-84
2022/08/17 11:58:53;;;;;;;20.38;18.27;;;26.00;99.90;;;;;;5054467;28;20132;-85
2022/08/17 12:01:22;;;;;;;20.27;17.63;;;25.80;99.90;;;;;;5053433;28;20491;-84
2022/08/17 12:03:57;;;;;;;22.17;16.50;;;25.60;99.90;;;;;;5037009;28;20445;-85
2022/08/17 12:06:29;;;;;;;21.83;18.15;;;25.30;99.90;;;;;;5054434;28;20065;-83
2022/08/17 12:09:13;;;;;;;21.92;18.67;;;25.20;99.90;;;;;;5037238;28;20132;-84
2022/08/17 12:12:11;;;;;;;20.60;18.40;;;25.10;99.90;;;;;;5036873;28;20052;-85
2022/08/17 12:14:38;;;;;;;18.13;16.30;;;25.00;99.90;;;;;;5016102;28;20103;-85
2022/08/17 12:17:10;;;;;;;25.48;19.08;;;25.00;99.90;;;;;;5016068;28;20057;-82
2022/08/17 12:19:37;;;;;;;25.10;21.73;;;25.00;99.90;;;;;;5032431;28;20053;-84
2022/08/17 12:22:31;;;;;;;22.65;19.92;;;25.10;99.90;;;;;;5015137;28;20438;-84
2022/08/17 12:25:09;;;;;;;25.00;21.23;;;25.10;99.90;;;;;;4999114;28;20053;-81
2022/08/17 12:27:42;;;;;;;24.27;21.58;;;25.00;99.90;;;;;;5015590;28;20045;-85
2022/08/17 12:30:12;;;;;;;27.67;22.95;;;25.00;99.90;;;;;;5032040;28;20045;-86
2022/08/17 12:32:39;;;;;;;24.02;21.50;;;25.20;99.90;;;;;;5015723;28;20058;-80
2022/08/17 12:35:19;;;;;;;21.67;19.25;;;25.40;99.90;;;;;;5031885;28;20131;-84
2022/08/17 12:37:48;;;;;;;25.20;20.80;;;25.60;99.90;;;;;;5032152;28;20091;-84
2022/08/17 12:40:25;;;;;;;21.48;18.73;;;25.80;99.90;;;;;;5032247;28;20129;-85
2022/08/17 12:43:03;;;;;;;24.17;18.90;;;25.80;99.90;;;;;;5015728;28;20147;-84
2022/08/17 12:45:38;;;;;;;21.80;19.27;;;25.80;99.90;;;;;;5015341;28;20137;-86
2022/08/17 12:48:06;;;;;;;22.98;20.58;;;25.70;99.90;;;;;;5031692;28;20045;-84
2022/08/17 12:50:40;;;;;;;21.55;18.45;;;25.70;99.90;;;;;;5017979;28;20053;-83
2022/08/17 12:53:13;;;;;;;25.25;20.92;;;25.70;99.90;;;;;;5036332;28;20045;-85
2022/08/17 12:55:40;;;;;;;23.00;18.67;;;25.70;99.90;;;;;;5053770;28;20444;-84
2022/08/17 12:58:11;;;;;;;23.48;19.98;;;25.70;99.90;;;;;;5053815;28;20044;-85
2022/08/17 13:00:41;;;;;;;21.73;18.90;;;25.50;99.90;;;;;;5036180;28;20092;-80
2022/08/17 13:03:15;;;;;;;21.33;17.90;;;25.50;99.90;;;;;;5053816;28;20498;-84
2022/08/17 13:06:06;;;;;;;20.10;18.00;;;25.30;99.90;;;;;;5053691;28;20107;-85
2022/08/17 13:08:44;;;;;;;19.55;16.38;;;25.10;99.90;;;;;;5053694;28;20473;-83
2022/08/17 13:11:13;;;;;;;20.85;17.60;;;25.10;99.90;;;;;;5053644;28;20052;-85
2022/08/17 13:13:42;;;;;;;20.20;16.35;;;24.90;99.90;;;;;;5035887;28;20466;-92
2022/08/17 13:16:15;;;;;;;19.65;15.80;;;24.90;99.90;;;;;;5035867;28;20457;-80
2022/08/17 13:18:51;;;;;;;20.00;17.02;;;24.90;99.90;;;;;;5053440;28;20045;-81
2022/08/17 13:21:29;;;;;;;20.95;17.00;;;24.80;99.90;;;;;;5053126;28;20401;-85
2022/08/17 13:24:10;;;;;;;21.85;16.85;;;24.60;99.90;;;;;;5035766;28;20056;-84
2022/08/17 13:27:10;;;;;;;20.75;17.38;;;24.50;99.90;;;;;;5035833;28;20059;-85
2022/08/17 13:29:37;;;;;;;;;;;24.50;99.90;;;;;;5035990;28;20055;-81
2022/08/17 13:32:03;;;;;;;24.17;21.30;;;24.40;99.90;;;;;;5052938;28;19931;-85
2022/08/17 13:34:28;;;;;;;22.38;19.98;;;24.10;99.90;;;;;;5035619;28;20040;-83